Nicola — VCNN — position and weather

sailwx.info

Track history (hours):
 
Tides and Currents Weather Stations Pressure Air Temp Water Temp Dewpoint Dewpoint Depression Visibility Wind Speed Wind Dir Waves Ship Positions

Nicola

Last reported at 2018-Jun-20 11:28 UTC. Time now 2018-Jun-20 11:39 UTC.
Position N 54°20' W 130°17'.

Length 31 m.

Type: Passenger vessel. MMSI: 316012834.

Date/timePositionNaut miles runAvg speedWind from/ knotsBaromVisibWave heightAir tempDewpointWater temp
2018-Jun-20 11:28N 54°20' W 130°17'0 0.0
2018-Jun-20 10:58N 54°20' W 130°17'0 0.0
2018-Jun-20 10:28N 54°20' W 130°17'0 0.0
2018-Jun-20 09:58N 54°20' W 130°17'0 0.0
2018-Jun-20 09:28N 54°20' W 130°17'0 0.0
2018-Jun-20 08:58N 54°20' W 130°17'0 0.0
2018-Jun-20 08:28N 54°20' W 130°17'0 0.0
2018-Jun-20 07:58N 54°20' W 130°17'0 0.0
2018-Jun-20 07:28N 54°20' W 130°17'0 0.0
2018-Jun-20 06:58N 54°20' W 130°17'0 0.0
2018-Jun-20 06:28N 54°20' W 130°17'0 0.0
2018-Jun-20 05:58N 54°20' W 130°17'0 0.0
2018-Jun-20 05:28N 54°20' W 130°17'0 0.0
2018-Jun-20 04:58N 54°20' W 130°17'0 0.0
2018-Jun-20 04:25N 54°20' W 130°17'0 0.0
2018-Jun-20 03:58N 54°20' W 130°17'0 0.0
2018-Jun-20 03:28N 54°20' W 130°17'0 0.0
2018-Jun-20 02:58N 54°20' W 130°17'0 0.0
2018-Jun-20 02:28N 54°20' W 130°17'0 0.0
2018-Jun-20 01:58N 54°20' W 130°17'2 3.6
2018-Jun-20 01:31N 54°22' W 130°16'4 8.4
2018-Jun-20 01:00N 54°26' W 130°18'1 1.5
2018-Jun-20 00:30N 54°25' W 130°18'5 9.3
2018-Jun-20 00:00N 54°20' W 130°17'0 0.8
2018-Jun-19 23:27N 54°20' W 130°17'0 0.0
2018-Jun-19 22:57N 54°20' W 130°17'0 0.0
2018-Jun-19 22:27N 54°20' W 130°17'0 0.0
2018-Jun-19 21:57N 54°20' W 130°17'0 0.0
2018-Jun-19 21:27N 54°20' W 130°17'0 0.0
2018-Jun-19 20:57N 54°20' W 130°17'0 0.0
2018-Jun-19 20:27N 54°20' W 130°17'0 0.0
2018-Jun-19 19:57N 54°20' W 130°17'0 0.0
2018-Jun-19 19:27N 54°20' W 130°17'0 0.0
2018-Jun-19 18:57N 54°20' W 130°17'0 0.0
2018-Jun-19 18:27N 54°20' W 130°17'0 0.0
2018-Jun-19 17:57N 54°20' W 130°17'0 0.0
2018-Jun-19 17:27N 54°20' W 130°17'0 0.0
2018-Jun-19 16:57N 54°20' W 130°17'1 3.1
2018-Jun-19 16:30N 54°21' W 130°17'4 8.9
2018-Jun-19 16:00N 54°26' W 130°19'1 2.1
2018-Jun-19 15:30N 54°25' W 130°17'4 8.9
2018-Jun-19 15:01N 54°20' W 130°17'0 0.8
2018-Jun-19 14:26N 54°20' W 130°17'0 0.0
2018-Jun-19 13:56N 54°20' W 130°17'0 0.0
2018-Jun-19 13:29N 54°20' W 130°17'0 0.0
2018-Jun-19 12:59N 54°20' W 130°17'0 0.0
2018-Jun-19 12:23N 54°20' W 130°17'0 0.0
2018-Jun-19 11:56N 54°20' W 130°17'0 0.0
2018-Jun-19 11:29N 54°20' W 130°17'0 0.0
2018-Jun-19 10:59N 54°20' W 130°17'0 0.0
2018-Jun-19 10:29N 54°20' W 130°17'0 0.0
2018-Jun-19 09:59N 54°20' W 130°17'0 0.0
2018-Jun-19 09:29N 54°20' W 130°17'0 0.0
2018-Jun-19 08:59N 54°20' W 130°17'0 0.0
2018-Jun-19 08:29N 54°20' W 130°17'0 0.0
2018-Jun-19 07:59N 54°20' W 130°17'0 0.0
2018-Jun-19 07:29N 54°20' W 130°17'0 0.0
2018-Jun-19 06:59N 54°20' W 130°17'0 0.0
2018-Jun-19 06:20N 54°20' W 130°17'0 0.0
2018-Jun-19 05:59N 54°20' W 130°17'0 0.0
2018-Jun-19 05:29N 54°20' W 130°17'0 0.0
2018-Jun-19 04:56N 54°20' W 130°17'0 0.0
2018-Jun-19 04:29N 54°20' W 130°17'0 0.0
2018-Jun-19 03:59N 54°20' W 130°17'0 0.0
2018-Jun-19 03:29N 54°20' W 130°17'0 0.0
2018-Jun-19 02:59N 54°20' W 130°17'0 0.0
2018-Jun-19 02:29N 54°20' W 130°17'0 0.0
2018-Jun-19 01:59N 54°20' W 130°17'2 4.1
2018-Jun-19 01:30N 54°22' W 130°16'4 8.4
2018-Jun-19 01:00N 54°26' W 130°19'1 2.4
2018-Jun-19 00:30N 54°25' W 130°17'5 9.4
2018-Jun-19 00:00N 54°20' W 130°17'0 0.4
2018-Jun-18 23:28N 54°20' W 130°17'0 0.0
2018-Jun-18 22:58N 54°20' W 130°17'0 0.0
2018-Jun-18 22:28N 54°20' W 130°17'0 0.0
2018-Jun-18 21:58N 54°20' W 130°17'0 0.0
2018-Jun-18 21:28N 54°20' W 130°17'0 0.0
2018-Jun-18 20:58N 54°20' W 130°17'0 0.0
2018-Jun-18 20:28N 54°20' W 130°17'0 0.0
2018-Jun-18 19:55N 54°20' W 130°17'0 0.0
2018-Jun-18 19:28N 54°20' W 130°17'0 0.0
2018-Jun-18 18:58N 54°20' W 130°17'0 0.0
2018-Jun-18 18:25N 54°20' W 130°17'0 0.0
2018-Jun-18 17:58N 54°20' W 130°17'0 0.0
2018-Jun-18 17:28N 54°20' W 130°17'0 0.0
2018-Jun-18 16:58N 54°20' W 130°17'1 2.9
2018-Jun-18 16:30N 54°21' W 130°17'5 9.1
2018-Jun-18 16:00N 54°26' W 130°19'1 2.5
2018-Jun-18 15:30N 54°25' W 130°17'4 8.7
2018-Jun-18 15:00N 54°20' W 130°17'0 1.0
2018-Jun-18 14:30N 54°20' W 130°17'0 0.0
2018-Jun-18 14:00N 54°20' W 130°17'0 0.0
2018-Jun-18 13:30N 54°20' W 130°17'0 0.0
2018-Jun-18 13:00N 54°20' W 130°17'0 0.0
2018-Jun-18 12:30N 54°20' W 130°17'0 0.0
2018-Jun-18 11:57N 54°20' W 130°17'0 0.0
2018-Jun-18 11:21N 54°20' W 130°17'0 0.0
2018-Jun-18 11:00N 54°20' W 130°17'0 0.0
2018-Jun-18 10:30N 54°20' W 130°17'0 0.0
2018-Jun-18 10:00N 54°20' W 130°17'0 0.0
2018-Jun-18 09:30N 54°20' W 130°17'0 0.0
2018-Jun-18 09:00N 54°20' W 130°17'0 0.0
2018-Jun-18 08:27N 54°20' W 130°17'0 0.0
2018-Jun-18 08:00N 54°20' W 130°17'0 0.0
2018-Jun-18 07:30N 54°20' W 130°17'0 0.0
2018-Jun-18 07:00N 54°20' W 130°17'0 0.0
2018-Jun-18 06:18N 54°20' W 130°17'0 0.0
2018-Jun-18 06:00N 54°20' W 130°17'0 0.0
2018-Jun-18 05:30N 54°20' W 130°17'0 0.0
2018-Jun-18 05:00N 54°20' W 130°17'0 0.0
2018-Jun-18 04:30N 54°20' W 130°17'0 0.0
2018-Jun-18 04:00N 54°20' W 130°17'0 0.0
2018-Jun-18 03:30N 54°20' W 130°17'0 0.0
2018-Jun-18 03:00N 54°20' W 130°17'0 0.0
2018-Jun-18 02:30N 54°20' W 130°17'0 0.0
2018-Jun-18 02:00N 54°20' W 130°17'0 0.0
2018-Jun-18 01:30N 54°20' W 130°17'0 0.0
2018-Jun-18 00:54N 54°20' W 130°17'2 4.5
2018-Jun-18 00:30N 54°22' W 130°16'5 9.0
2018-Jun-18 00:00N 54°26' W 130°19'2 3.4
2018-Jun-17 23:30N 54°25' W 130°17'5 9.3
2018-Jun-17 23:00N 54°20' W 130°17'0 0.1
2018-Jun-17 22:30N 54°20' W 130°17'0 0.0
2018-Jun-17 21:57N 54°20' W 130°17'0 0.0
2018-Jun-17 21:30N 54°20' W 130°17'0 0.0
2018-Jun-17 21:00N 54°20' W 130°17'0 0.0
2018-Jun-17 20:30N 54°20' W 130°17'0 0.0
2018-Jun-17 20:00N 54°20' W 130°17'2 4.8
2018-Jun-17 19:30N 54°22' W 130°16'4 5.3
2018-Jun-17 18:44N 54°26' W 130°19'1 6.6
2018-Jun-17 18:31N 54°25' W 130°17'4 8.9
2018-Jun-17 18:00N 54°20' W 130°17'0 0.7
2018-Jun-17 17:28N 54°20' W 130°17'0 0.0
2018-Jun-17 16:58N 54°20' W 130°17'0 0.0
2018-Jun-17 16:28N 54°20' W 130°17'0 0.0
2018-Jun-17 15:58N 54°20' W 130°17'0 0.0
2018-Jun-17 15:28N 54°20' W 130°17'0 0.0
2018-Jun-17 14:58N 54°20' W 130°17'0 0.0
2018-Jun-17 14:25N 54°20' W 130°17'0 0.0
2018-Jun-17 13:58N 54°20' W 130°17'0 0.0
2018-Jun-17 13:28N 54°20' W 130°17'0 0.0
2018-Jun-17 12:58N 54°20' W 130°17'0 0.0
2018-Jun-17 12:25N 54°20' W 130°17'0 0.0
2018-Jun-17 11:58N 54°20' W 130°17'0 0.0
2018-Jun-17 11:28N 54°20' W 130°17'0 0.0
2018-Jun-17 10:55N 54°20' W 130°17'0 0.0
2018-Jun-17 10:28N 54°20' W 130°17'0 0.0
2018-Jun-17 09:58N 54°20' W 130°17'0 0.0
2018-Jun-17 09:25N 54°20' W 130°17'0 0.0
2018-Jun-17 08:55N 54°20' W 130°17'0 0.0
2018-Jun-17 08:25N 54°20' W 130°17'0 0.0
2018-Jun-17 07:55N 54°20' W 130°17'0 0.0
2018-Jun-17 07:28N 54°20' W 130°17'0 0.0
2018-Jun-17 06:58N 54°20' W 130°17'0 0.0
2018-Jun-17 06:28N 54°20' W 130°17'0 0.0
2018-Jun-17 05:58N 54°20' W 130°17'0 0.0
2018-Jun-17 05:25N 54°20' W 130°17'0 0.0
2018-Jun-17 04:58N 54°20' W 130°17'0 0.0
2018-Jun-17 04:28N 54°20' W 130°17'0 0.0
2018-Jun-17 03:55N 54°20' W 130°17'0 0.0
2018-Jun-17 03:28N 54°20' W 130°17'0 0.0
2018-Jun-17 02:58N 54°20' W 130°17'0 0.0
2018-Jun-17 02:28N 54°20' W 130°17'0 0.0
2018-Jun-17 01:52N 54°20' W 130°17'2 4.1
2018-Jun-17 01:30N 54°21' W 130°16'4 8.6
2018-Jun-17 01:00N 54°26' W 130°18'1 1.1
2018-Jun-17 00:30N 54°25' W 130°18'4 8.8
2018-Jun-17 00:00N 54°21' W 130°17'1 1.4
2018-Jun-16 23:28N 54°20' W 130°17'0 0.0
2018-Jun-16 23:00N 54°20' W 130°17'0 0.0
2018-Jun-16 22:30N 54°20' W 130°17'0 0.0
2018-Jun-16 22:01N 54°20' W 130°17'0 0.0
2018-Jun-16 21:25N 54°20' W 130°17'0 0.0
2018-Jun-16 20:58N 54°20' W 130°17'0 0.0
2018-Jun-16 20:24N 54°20' W 130°17'0 0.0
2018-Jun-16 19:58N 54°20' W 130°17'0 0.0
2018-Jun-16 19:28N 54°20' W 130°17'0 0.0
2018-Jun-16 18:57N 54°20' W 130°17'0 0.0
2018-Jun-16 18:28N 54°20' W 130°17'1 2.2
2018-Jun-16 17:48N 54°19' W 130°19'0 0.0
2018-Jun-16 17:30N 54°19' W 130°19'1 2.2
2018-Jun-16 17:00N 54°20' W 130°18'2 4.0
2018-Jun-16 16:30N 54°22' W 130°16'5 6.9
2018-Jun-16 15:51N 54°26' W 130°19'2 6.1
2018-Jun-16 15:29N 54°24' W 130°16'4 8.8
2018-Jun-16 15:00N 54°20' W 130°17'0 0.2
2018-Jun-16 14:30N 54°20' W 130°17'0 0.0
2018-Jun-16 14:00N 54°20' W 130°17'0 0.0
2018-Jun-16 13:30N 54°20' W 130°17'0 0.0
2018-Jun-16 13:00N 54°20' W 130°17'0 0.0
2018-Jun-16 12:30N 54°20' W 130°17'0 0.0
2018-Jun-16 12:00N 54°20' W 130°17'0 0.0
2018-Jun-16 11:30N 54°20' W 130°17'0 0.0
2018-Jun-16 11:00N 54°20' W 130°17'0 0.0
2018-Jun-16 10:30N 54°20' W 130°17'0 0.0
2018-Jun-16 10:00N 54°20' W 130°17'0 0.0
2018-Jun-16 09:30N 54°20' W 130°17'0 0.0
2018-Jun-16 09:00N 54°20' W 130°17'0 0.0
2018-Jun-16 08:30N 54°20' W 130°17'0 0.0
2018-Jun-16 08:00N 54°20' W 130°17'0 0.0
2018-Jun-16 07:30N 54°20' W 130°17'0 0.0
2018-Jun-16 07:00N 54°20' W 130°17'0 0.0
2018-Jun-16 06:30N 54°20' W 130°17'0 0.0
2018-Jun-16 06:01N 54°20' W 130°17'0 0.0
2018-Jun-16 05:30N 54°20' W 130°17'0 0.0
2018-Jun-16 05:00N 54°20' W 130°17'0 0.0
2018-Jun-16 04:30N 54°20' W 130°17'0 0.0
2018-Jun-16 03:59N 54°20' W 130°17'0 0.0
2018-Jun-16 03:30N 54°20' W 130°17'0 0.0
2018-Jun-16 03:01N 54°20' W 130°17'0 0.0
2018-Jun-16 02:30N 54°20' W 130°17'0 0.0
2018-Jun-16 02:00N 54°20' W 130°17'4 7.1
2018-Jun-16 01:30N 54°23' W 130°15'3 6.5
2018-Jun-16 01:00N 54°26' W 130°19'2 4.3
2018-Jun-16 00:30N 54°24' W 130°17'4 8.2
2018-Jun-16 00:00N 54°20' W 130°17'0 0.4
2018-Jun-15 23:28N 54°20' W 130°17'0 0.0
2018-Jun-15 22:58N 54°20' W 130°17'0 0.0
2018-Jun-15 22:28N 54°20' W 130°17'0 0.0
2018-Jun-15 21:58N 54°20' W 130°17'0 0.0
2018-Jun-15 21:28N 54°20' W 130°17'0 0.0
2018-Jun-15 20:58N 54°20' W 130°17'0 0.0
2018-Jun-15 20:28N 54°20' W 130°17'0 0.0
2018-Jun-15 19:58N 54°20' W 130°17'0 0.0
2018-Jun-15 19:28N 54°20' W 130°17'0 0.0
2018-Jun-15 18:58N 54°20' W 130°17'0 0.0
2018-Jun-15 18:28N 54°20' W 130°17'0 0.0
2018-Jun-15 17:49N 54°20' W 130°17'0 0.0
2018-Jun-15 17:25N 54°20' W 130°17'0 0.0
2018-Jun-15 16:58N 54°20' W 130°17'2 3.6
2018-Jun-15 16:30N 54°22' W 130°16'4 8.6
2018-Jun-15 16:00N 54°26' W 130°19'1 2.6
2018-Jun-15 15:27N 54°25' W 130°17'4 8.4
2018-Jun-15 15:00N 54°21' W 130°17'1 1.7
2018-Jun-15 14:30N 54°20' W 130°17'0 0.0
2018-Jun-15 14:00N 54°20' W 130°17'0 0.0
2018-Jun-15 13:30N 54°20' W 130°17'0 0.0
2018-Jun-15 12:59N 54°20' W 130°17'0 0.0
2018-Jun-15 12:30N 54°20' W 130°17'0 0.0
2018-Jun-15 12:00N 54°20' W 130°17'0 0.0
2018-Jun-15 11:30N 54°20' W 130°17'0 0.0
2018-Jun-15 11:00N 54°20' W 130°17'0 0.0
2018-Jun-15 10:30N 54°20' W 130°17'0 0.0
2018-Jun-15 10:00N 54°20' W 130°17'0 0.0
2018-Jun-15 09:30N 54°20' W 130°17'0 0.0
2018-Jun-15 09:00N 54°20' W 130°17'0 0.0
2018-Jun-15 08:30N 54°20' W 130°17'0 0.0
2018-Jun-15 07:59N 54°20' W 130°17'0 0.0
2018-Jun-15 07:30N 54°20' W 130°17'0 0.0
2018-Jun-15 07:00N 54°20' W 130°17'0 0.0
2018-Jun-15 06:30N 54°20' W 130°17'0 0.0
2018-Jun-15 05:59N 54°20' W 130°17'0 0.0
2018-Jun-15 05:30N 54°20' W 130°17'0 0.0
2018-Jun-15 05:00N 54°20' W 130°17'0 0.0
2018-Jun-15 04:30N 54°20' W 130°17'0 0.0
2018-Jun-15 03:59N 54°20' W 130°17'0 0.0
2018-Jun-15 03:30N 54°20' W 130°17'0 0.0
2018-Jun-15 03:00N 54°20' W 130°17'0 0.0
2018-Jun-15 02:30N 54°20' W 130°17'0 0.0
2018-Jun-15 02:00N 54°20' W 130°17'2 4.2
2018-Jun-15 01:30N 54°22' W 130°16'4 8.5
2018-Jun-15 01:00N 54°26' W 130°19'1 2.9
2018-Jun-15 00:30N 54°25' W 130°17'4 8.4
2018-Jun-15 00:00N 54°21' W 130°17'1 1.2
2018-Jun-14 23:30N 54°20' W 130°17'0 0.0
2018-Jun-14 23:00N 54°20' W 130°17'0 0.0
2018-Jun-14 22:30N 54°20' W 130°17'0 0.0
2018-Jun-14 22:00N 54°20' W 130°17'0 0.0
2018-Jun-14 21:30N 54°20' W 130°17'0 0.0
2018-Jun-14 20:59N 54°20' W 130°17'0 0.0
2018-Jun-14 20:30N 54°20' W 130°17'0 0.0
2018-Jun-14 20:00N 54°20' W 130°17'0 0.0
2018-Jun-14 19:30N 54°20' W 130°17'0 0.0
2018-Jun-14 19:00N 54°20' W 130°17'0 0.0
2018-Jun-14 18:30N 54°20' W 130°17'0 0.0
2018-Jun-14 17:59N 54°20' W 130°17'0 0.0
2018-Jun-14 17:30N 54°20' W 130°17'0 0.0
2018-Jun-14 17:00N 54°20' W 130°17'2 3.2
2018-Jun-14 16:30N 54°22' W 130°16'4 8.1
2018-Jun-14 16:00N 54°25' W 130°18'1 1.5
2018-Jun-14 15:30N 54°25' W 130°17'4 8.3
2018-Jun-14 15:00N 54°21' W 130°17'1 1.5
2018-Jun-14 14:30N 54°20' W 130°17'0 0.0
2018-Jun-14 14:00N 54°20' W 130°17'0 0.0
2018-Jun-14 13:30N 54°20' W 130°17'0 0.0
2018-Jun-14 13:00N 54°20' W 130°17'0 0.0
2018-Jun-14 12:30N 54°20' W 130°17'0 0.0
2018-Jun-14 12:00N 54°20' W 130°17'0 0.0
2018-Jun-14 11:30N 54°20' W 130°17'0 0.0
2018-Jun-14 11:00N 54°20' W 130°17'0 0.0
2018-Jun-14 10:30N 54°20' W 130°17'0 0.0
2018-Jun-14 10:00N 54°20' W 130°17'0 0.0
2018-Jun-14 09:30N 54°20' W 130°17'0 0.0
2018-Jun-14 08:59N 54°20' W 130°17'0 0.0
2018-Jun-14 08:30N 54°20' W 130°17'0 0.0
2018-Jun-14 08:00N 54°20' W 130°17'0 0.0
2018-Jun-14 07:30N 54°20' W 130°17'0 0.0
2018-Jun-14 07:00N 54°20' W 130°17'0 0.0
2018-Jun-14 06:30N 54°20' W 130°17'0 0.0
2018-Jun-14 06:00N 54°20' W 130°17'0 0.0
2018-Jun-14 05:29N 54°20' W 130°17'0 0.0
2018-Jun-14 05:00N 54°20' W 130°17'0 0.0
2018-Jun-14 04:30N 54°20' W 130°17'0 0.0
2018-Jun-14 04:00N 54°20' W 130°17'0 0.0
2018-Jun-14 03:30N 54°20' W 130°17'0 0.0
2018-Jun-14 03:00N 54°20' W 130°17'0 0.0
2018-Jun-14 02:30N 54°20' W 130°17'0 0.0
2018-Jun-14 02:00N 54°20' W 130°17'2 3.7
2018-Jun-14 01:30N 54°22' W 130°16'4 8.6
2018-Jun-14 01:00N 54°26' W 130°19'1 2.6
2018-Jun-14 00:30N 54°25' W 130°17'4 8.2
2018-Jun-14 00:00N 54°21' W 130°17'1 1.6
2018-Jun-13 23:30N 54°20' W 130°17'0 0.0
2018-Jun-13 23:00N 54°20' W 130°17'0 0.0
2018-Jun-13 22:30N 54°20' W 130°17'0 0.0
2018-Jun-13 21:59N 54°20' W 130°17'0 0.0
2018-Jun-13 21:30N 54°20' W 130°17'0 0.0
2018-Jun-13 21:00N 54°20' W 130°17'0 0.0
2018-Jun-13 20:30N 54°20' W 130°17'0 0.0
2018-Jun-13 20:00N 54°20' W 130°17'0 0.0
2018-Jun-13 19:30N 54°20' W 130°17'0 0.0
2018-Jun-13 19:00N 54°20' W 130°17'0 0.0
2018-Jun-13 18:30N 54°20' W 130°17'0 0.0
2018-Jun-13 18:00N 54°20' W 130°17'0 0.0
2018-Jun-13 17:30N 54°20' W 130°17'0 0.0
2018-Jun-13 17:00N 54°20' W 130°17'2 4.2
2018-Jun-13 16:30N 54°22' W 130°16'4 8.4
2018-Jun-13 16:00N 54°26' W 130°19'1 2.1
2018-Jun-13 15:30N 54°25' W 130°18'4 8.2
2018-Jun-13 15:00N 54°21' W 130°17'1 1.5
2018-Jun-13 14:23N 54°20' W 130°17'0 0.0
2018-Jun-13 13:56N 54°20' W 130°17'0 0.0
2018-Jun-13 13:29N 54°20' W 130°17'0 0.0
2018-Jun-13 12:59N 54°20' W 130°17'0 0.0
2018-Jun-13 12:29N 54°20' W 130°17'0 0.0
2018-Jun-13 11:56N 54°20' W 130°17'0 0.0
2018-Jun-13 11:29N 54°20' W 130°17'0 0.0
2018-Jun-13 10:59N 54°20' W 130°17'0 0.0
2018-Jun-13 10:14N 54°20' W 130°17'0 0.0
2018-Jun-13 09:56N 54°20' W 130°17'0 0.0
2018-Jun-13 09:29N 54°20' W 130°17'0 0.0
2018-Jun-13 08:56N 54°20' W 130°17'0 0.0
2018-Jun-13 08:29N 54°20' W 130°17'0 0.0
2018-Jun-13 07:56N 54°20' W 130°17'0 0.0
2018-Jun-13 07:26N 54°20' W 130°17'0 0.0
2018-Jun-13 06:59N 54°20' W 130°17'0 0.0
2018-Jun-13 06:26N 54°20' W 130°17'0 0.0
2018-Jun-13 05:56N 54°20' W 130°17'0 0.0
2018-Jun-13 05:14N 54°20' W 130°17'0 0.0
2018-Jun-13 04:59N 54°20' W 130°17'0 0.0
2018-Jun-13 04:26N 54°20' W 130°17'0 0.0
2018-Jun-13 03:59N 54°20' W 130°17'0 0.0
2018-Jun-13 03:29N 54°20' W 130°17'0 0.0
2018-Jun-13 02:59N 54°20' W 130°17'0 0.0
2018-Jun-13 02:29N 54°20' W 130°17'0 0.0
2018-Jun-13 01:59N 54°20' W 130°17'2 4.6
2018-Jun-13 01:31N 54°22' W 130°16'4 8.4
2018-Jun-13 01:00N 54°26' W 130°19'2 3.5
2018-Jun-13 00:30N 54°25' W 130°17'4 8.4
2018-Jun-13 00:01N 54°20' W 130°17'0 0.8
2018-Jun-12 23:29N 54°20' W 130°17'0 0.0
2018-Jun-12 22:59N 54°20' W 130°17'0 0.0
2018-Jun-12 22:26N 54°20' W 130°17'0 0.0
2018-Jun-12 21:59N 54°20' W 130°17'0 0.0
2018-Jun-12 21:26N 54°20' W 130°17'0 0.0
2018-Jun-12 20:59N 54°20' W 130°17'0 0.0
2018-Jun-12 20:29N 54°20' W 130°17'0 0.0
2018-Jun-12 19:59N 54°20' W 130°17'0 0.0
2018-Jun-12 19:29N 54°20' W 130°17'0 0.0
2018-Jun-12 18:59N 54°20' W 130°17'0 0.0
2018-Jun-12 18:29N 54°20' W 130°17'0 0.0
2018-Jun-12 17:59N 54°20' W 130°17'0 0.0
2018-Jun-12 17:29N 54°20' W 130°17'0 0.0
2018-Jun-12 16:53N 54°20' W 130°17'2 4.6
2018-Jun-12 16:31N 54°22' W 130°16'4 8.5
2018-Jun-12 16:00N 54°26' W 130°18'1 2.3
2018-Jun-12 15:30N 54°25' W 130°17'4 8.1
2018-Jun-12 15:00N 54°21' W 130°17'1 1.4
2018-Jun-12 14:30N 54°20' W 130°17'0 0.0
2018-Jun-12 14:00N 54°20' W 130°17'0 0.0
2018-Jun-12 13:30N 54°20' W 130°17'0 0.0
2018-Jun-12 12:57N 54°20' W 130°17'0 0.0
2018-Jun-12 12:27N 54°20' W 130°17'0 0.0
2018-Jun-12 12:00N 54°20' W 130°17'0 0.0
2018-Jun-12 11:30N 54°20' W 130°17'0 0.0
2018-Jun-12 10:54N 54°20' W 130°17'0 0.0
2018-Jun-12 10:27N 54°20' W 130°17'0 0.0
2018-Jun-12 09:57N 54°20' W 130°17'0 0.0
2018-Jun-12 09:30N 54°20' W 130°17'0 0.0
2018-Jun-12 08:55N 54°20' W 130°17'0 0.0
2018-Jun-12 08:28N 54°20' W 130°17'0 0.0
2018-Jun-12 08:00N 54°20' W 130°17'0 0.0
2018-Jun-12 07:30N 54°20' W 130°17'0 0.0
2018-Jun-12 07:00N 54°20' W 130°17'0 0.0
2018-Jun-12 06:27N 54°20' W 130°17'0 0.0
2018-Jun-12 06:00N 54°20' W 130°17'0 0.0
2018-Jun-12 05:31N 54°20' W 130°17'0 0.0
2018-Jun-12 05:00N 54°20' W 130°17'0 0.0
2018-Jun-12 04:31N 54°20' W 130°17'0 0.0
2018-Jun-12 03:57N 54°20' W 130°17'0 0.0
2018-Jun-12 03:30N 54°20' W 130°17'0 0.0
2018-Jun-12 03:01N 54°20' W 130°17'0 0.0
2018-Jun-12 02:30N 54°20' W 130°17'0 0.0
2018-Jun-12 01:57N 54°20' W 130°17'1 1.2
2018-Jun-12 01:30N 54°21' W 130°17'4 8.8
2018-Jun-12 01:00N 54°25' W 130°17'0 0.8
2018-Jun-12 00:30N 54°25' W 130°18'4 8.8
2018-Jun-12 00:00N 54°21' W 130°17'1 1.4
2018-Jun-11 23:30N 54°20' W 130°17'0 0.0
2018-Jun-11 23:00N 54°20' W 130°17'0 0.0
2018-Jun-11 22:27N 54°20' W 130°17'0 0.0
2018-Jun-11 21:54N 54°20' W 130°17'0 0.0
2018-Jun-11 21:30N 54°20' W 130°17'0 0.0
2018-Jun-11 21:00N 54°20' W 130°17'0 0.0
2018-Jun-11 20:30N 54°20' W 130°17'0 0.0
2018-Jun-11 20:00N 54°20' W 130°17'0 0.0
2018-Jun-11 19:30N 54°20' W 130°17'0 0.0
2018-Jun-11 19:00N 54°20' W 130°17'0 0.0
2018-Jun-11 18:30N 54°20' W 130°17'0 0.0
2018-Jun-11 18:00N 54°20' W 130°17'0 0.0
2018-Jun-11 17:30N 54°20' W 130°17'0 0.0
2018-Jun-11 17:00N 54°20' W 130°17'1 1.7
2018-Jun-11 16:31N 54°21' W 130°17'4 8.0
2018-Jun-11 16:00N 54°25' W 130°17'0 0.2
2018-Jun-11 15:30N 54°25' W 130°17'4 8.6
2018-Jun-11 15:00N 54°21' W 130°17'1 1.2
2018-Jun-11 14:28N 54°20' W 130°17'0 0.0
2018-Jun-11 13:58N 54°20' W 130°17'0 0.0
2018-Jun-11 13:25N 54°20' W 130°17'0 0.0
2018-Jun-11 12:55N 54°20' W 130°17'0 0.0
2018-Jun-11 12:28N 54°20' W 130°17'0 0.0
2018-Jun-11 11:58N 54°20' W 130°17'0 0.0
2018-Jun-11 11:28N 54°20' W 130°17'0 0.0
2018-Jun-11 10:58N 54°20' W 130°17'0 0.0
2018-Jun-11 10:28N 54°20' W 130°17'0 0.0
2018-Jun-11 09:55N 54°20' W 130°17'0 0.0
2018-Jun-11 09:28N 54°20' W 130°17'0 0.0
2018-Jun-11 08:58N 54°20' W 130°17'0 0.0
2018-Jun-11 08:28N 54°20' W 130°17'0 0.0
2018-Jun-11 07:58N 54°20' W 130°17'0 0.0
2018-Jun-11 07:28N 54°20' W 130°17'0 0.0
2018-Jun-11 06:58N 54°20' W 130°17'0 0.0
2018-Jun-11 06:28N 54°20' W 130°17'0 0.0
2018-Jun-11 05:58N 54°20' W 130°17'0 0.0
2018-Jun-11 05:28N 54°20' W 130°17'0 0.0
2018-Jun-11 04:55N 54°20' W 130°17'0 0.0
2018-Jun-11 04:28N 54°20' W 130°17'0 0.0
2018-Jun-11 03:58N 54°20' W 130°17'0 0.0
2018-Jun-11 03:28N 54°20' W 130°17'0 0.0
2018-Jun-11 02:58N 54°20' W 130°17'0 0.0
2018-Jun-11 02:28N 54°20' W 130°17'0 0.0
2018-Jun-11 01:58N 54°20' W 130°17'0 0.0
2018-Jun-11 01:28N 54°20' W 130°17'0 0.0
2018-Jun-11 00:58N 54°20' W 130°17'3 5.7
2018-Jun-11 00:30N 54°23' W 130°16'4 5.3
2018-Jun-10 23:46N 54°26' W 130°19'2 6.9
2018-Jun-10 23:30N 54°25' W 130°17'5 8.5
2018-Jun-10 22:58N 54°20' W 130°17'0 0.0
2018-Jun-10 22:28N 54°20' W 130°17'0 0.0
2018-Jun-10 21:58N 54°20' W 130°17'0 0.0
2018-Jun-10 21:28N 54°20' W 130°17'0 0.0
2018-Jun-10 20:58N 54°20' W 130°17'0 0.0
2018-Jun-10 20:28N 54°20' W 130°17'0 0.0
2018-Jun-10 19:58N 54°20' W 130°17'1 2.4
2018-Jun-10 19:30N 54°21' W 130°17'4 8.8
2018-Jun-10 19:00N 54°25' W 130°18'1 1.3
2018-Jun-10 18:30N 54°25' W 130°17'4 8.7
2018-Jun-10 18:00N 54°21' W 130°17'1 1.0
2018-Jun-10 17:30N 54°20' W 130°17'0 0.0
2018-Jun-10 17:00N 54°20' W 130°17'0 0.0
2018-Jun-10 16:27N 54°20' W 130°17'0 0.0
2018-Jun-10 16:00N 54°20' W 130°17'0 0.0
2018-Jun-10 15:27N 54°20' W 130°17'0 0.0
2018-Jun-10 14:57N 54°20' W 130°17'0 0.0
2018-Jun-10 14:00N 54°20' W 130°17'0 0.0
2018-Jun-10 13:30N 54°20' W 130°17'0 0.0
2018-Jun-10 13:00N 54°20' W 130°17'0 0.0
2018-Jun-10 12:30N 54°20' W 130°17'0 0.0
2018-Jun-10 12:00N 54°20' W 130°17'0 0.0
2018-Jun-10 11:30N 54°20' W 130°17'  
Track history (hours):
 
Tides and Currents Weather Stations Pressure Air Temp Water Temp Dewpoint Dewpoint Depression Visibility Wind Speed Wind Dir Waves Ship Positions

Nicola

Last reported at 2018-Jun-20 11:28 UTC. Time now 2018-Jun-20 11:39 UTC.
Position N 54°20' W 130°17'.

Length 31 m.

Type: Passenger vessel. MMSI: 316012834.

Date/timePositionNaut miles runAvg speedWind from/ knotsBaromVisibWave heightAir tempDewpointWater temp
2018-Jun-20 11:28N 54°20' W 130°17'0 0.0
2018-Jun-20 10:58N 54°20' W 130°17'0 0.0
2018-Jun-20 10:28N 54°20' W 130°17'0 0.0
2018-Jun-20 09:58N 54°20' W 130°17'0 0.0
2018-Jun-20 09:28N 54°20' W 130°17'0 0.0
2018-Jun-20 08:58N 54°20' W 130°17'0 0.0
2018-Jun-20 08:28N 54°20' W 130°17'0 0.0
2018-Jun-20 07:58N 54°20' W 130°17'0 0.0
2018-Jun-20 07:28N 54°20' W 130°17'0 0.0
2018-Jun-20 06:58N 54°20' W 130°17'0 0.0
2018-Jun-20 06:28N 54°20' W 130°17'0 0.0
2018-Jun-20 05:58N 54°20' W 130°17'0 0.0
2018-Jun-20 05:28N 54°20' W 130°17'0 0.0
2018-Jun-20 04:58N 54°20' W 130°17'0 0.0
2018-Jun-20 04:25N 54°20' W 130°17'0 0.0
2018-Jun-20 03:58N 54°20' W 130°17'0 0.0
2018-Jun-20 03:28N 54°20' W 130°17'0 0.0
2018-Jun-20 02:58N 54°20' W 130°17'0 0.0
2018-Jun-20 02:28N 54°20' W 130°17'0 0.0
2018-Jun-20 01:58N 54°20' W 130°17'2 3.6
2018-Jun-20 01:31N 54°22' W 130°16'4 8.4
2018-Jun-20 01:00N 54°26' W 130°18'1 1.5
2018-Jun-20 00:30N 54°25' W 130°18'5 9.3
2018-Jun-20 00:00N 54°20' W 130°17'0 0.8
2018-Jun-19 23:27N 54°20' W 130°17'0 0.0
2018-Jun-19 22:57N 54°20' W 130°17'0 0.0
2018-Jun-19 22:27N 54°20' W 130°17'0 0.0
2018-Jun-19 21:57N 54°20' W 130°17'0 0.0
2018-Jun-19 21:27N 54°20' W 130°17'0 0.0
2018-Jun-19 20:57N 54°20' W 130°17'0 0.0
2018-Jun-19 20:27N 54°20' W 130°17'0 0.0
2018-Jun-19 19:57N 54°20' W 130°17'0 0.0
2018-Jun-19 19:27N 54°20' W 130°17'0 0.0
2018-Jun-19 18:57N 54°20' W 130°17'0 0.0
2018-Jun-19 18:27N 54°20' W 130°17'0 0.0
2018-Jun-19 17:57N 54°20' W 130°17'0 0.0
2018-Jun-19 17:27N 54°20' W 130°17'0 0.0
2018-Jun-19 16:57N 54°20' W 130°17'1 3.1
2018-Jun-19 16:30N 54°21' W 130°17'4 8.9
2018-Jun-19 16:00N 54°26' W 130°19'1 2.1
2018-Jun-19 15:30N 54°25' W 130°17'4 8.9
2018-Jun-19 15:01N 54°20' W 130°17'0 0.8
2018-Jun-19 14:26N 54°20' W 130°17'0 0.0
2018-Jun-19 13:56N 54°20' W 130°17'0 0.0
2018-Jun-19 13:29N 54°20' W 130°17'0 0.0
2018-Jun-19 12:59N 54°20' W 130°17'0 0.0
2018-Jun-19 12:23N 54°20' W 130°17'0 0.0
2018-Jun-19 11:56N 54°20' W 130°17'0 0.0
2018-Jun-19 11:29N 54°20' W 130°17'0 0.0
2018-Jun-19 10:59N 54°20' W 130°17'0 0.0
2018-Jun-19 10:29N 54°20' W 130°17'0 0.0
2018-Jun-19 09:59N 54°20' W 130°17'0 0.0
2018-Jun-19 09:29N 54°20' W 130°17'0 0.0
2018-Jun-19 08:59N 54°20' W 130°17'0 0.0
2018-Jun-19 08:29N 54°20' W 130°17'0 0.0
2018-Jun-19 07:59N 54°20' W 130°17'0 0.0
2018-Jun-19 07:29N 54°20' W 130°17'0 0.0
2018-Jun-19 06:59N 54°20' W 130°17'0 0.0
2018-Jun-19 06:20N 54°20' W 130°17'0 0.0
2018-Jun-19 05:59N 54°20' W 130°17'0 0.0
2018-Jun-19 05:29N 54°20' W 130°17'0 0.0
2018-Jun-19 04:56N 54°20' W 130°17'0 0.0
2018-Jun-19 04:29N 54°20' W 130°17'0 0.0
2018-Jun-19 03:59N 54°20' W 130°17'0 0.0
2018-Jun-19 03:29N 54°20' W 130°17'0 0.0
2018-Jun-19 02:59N 54°20' W 130°17'0 0.0
2018-Jun-19 02:29N 54°20' W 130°17'0 0.0
2018-Jun-19 01:59N 54°20' W 130°17'2 4.1
2018-Jun-19 01:30N 54°22' W 130°16'4 8.4
2018-Jun-19 01:00N 54°26' W 130°19'1 2.4
2018-Jun-19 00:30N 54°25' W 130°17'5 9.4
2018-Jun-19 00:00N 54°20' W 130°17'0 0.4
2018-Jun-18 23:28N 54°20' W 130°17'0 0.0
2018-Jun-18 22:58N 54°20' W 130°17'0 0.0
2018-Jun-18 22:28N 54°20' W 130°17'0 0.0
2018-Jun-18 21:58N 54°20' W 130°17'0 0.0
2018-Jun-18 21:28N 54°20' W 130°17'0 0.0
2018-Jun-18 20:58N 54°20' W 130°17'0 0.0
2018-Jun-18 20:28N 54°20' W 130°17'0 0.0
2018-Jun-18 19:55N 54°20' W 130°17'0 0.0
2018-Jun-18 19:28N 54°20' W 130°17'0 0.0
2018-Jun-18 18:58N 54°20' W 130°17'0 0.0
2018-Jun-18 18:25N 54°20' W 130°17'0 0.0
2018-Jun-18 17:58N 54°20' W 130°17'0 0.0
2018-Jun-18 17:28N 54°20' W 130°17'0 0.0
2018-Jun-18 16:58N 54°20' W 130°17'1 2.9
2018-Jun-18 16:30N 54°21' W 130°17'5 9.1
2018-Jun-18 16:00N 54°26' W 130°19'1 2.5
2018-Jun-18 15:30N 54°25' W 130°17'4 8.7
2018-Jun-18 15:00N 54°20' W 130°17'0 1.0
2018-Jun-18 14:30N 54°20' W 130°17'0 0.0
2018-Jun-18 14:00N 54°20' W 130°17'0 0.0
2018-Jun-18 13:30N 54°20' W 130°17'0 0.0
2018-Jun-18 13:00N 54°20' W 130°17'0 0.0
2018-Jun-18 12:30N 54°20' W 130°17'0 0.0
2018-Jun-18 11:57N 54°20' W 130°17'0 0.0
2018-Jun-18 11:21N 54°20' W 130°17'0 0.0
2018-Jun-18 11:00N 54°20' W 130°17'0 0.0
2018-Jun-18 10:30N 54°20' W 130°17'0 0.0
2018-Jun-18 10:00N 54°20' W 130°17'0 0.0
2018-Jun-18 09:30N 54°20' W 130°17'0 0.0
2018-Jun-18 09:00N 54°20' W 130°17'0 0.0
2018-Jun-18 08:27N 54°20' W 130°17'0 0.0
2018-Jun-18 08:00N 54°20' W 130°17'0 0.0
2018-Jun-18 07:30N 54°20' W 130°17'0 0.0
2018-Jun-18 07:00N 54°20' W 130°17'0 0.0
2018-Jun-18 06:18N 54°20' W 130°17'0 0.0
2018-Jun-18 06:00N 54°20' W 130°17'0 0.0
2018-Jun-18 05:30N 54°20' W 130°17'0 0.0
2018-Jun-18 05:00N 54°20' W 130°17'0 0.0
2018-Jun-18 04:30N 54°20' W 130°17'0 0.0
2018-Jun-18 04:00N 54°20' W 130°17'0 0.0
2018-Jun-18 03:30N 54°20' W 130°17'0 0.0
2018-Jun-18 03:00N 54°20' W 130°17'0 0.0
2018-Jun-18 02:30N 54°20' W 130°17'0 0.0
2018-Jun-18 02:00N 54°20' W 130°17'0 0.0
2018-Jun-18 01:30N 54°20' W 130°17'0 0.0
2018-Jun-18 00:54N 54°20' W 130°17'2 4.5
2018-Jun-18 00:30N 54°22' W 130°16'5 9.0
2018-Jun-18 00:00N 54°26' W 130°19'2 3.4
2018-Jun-17 23:30N 54°25' W 130°17'5 9.3
2018-Jun-17 23:00N 54°20' W 130°17'0 0.1
2018-Jun-17 22:30N 54°20' W 130°17'0 0.0
2018-Jun-17 21:57N 54°20' W 130°17'0 0.0
2018-Jun-17 21:30N 54°20' W 130°17'0 0.0
2018-Jun-17 21:00N 54°20' W 130°17'0 0.0
2018-Jun-17 20:30N 54°20' W 130°17'0 0.0
2018-Jun-17 20:00N 54°20' W 130°17'2 4.8
2018-Jun-17 19:30N 54°22' W 130°16'4 5.3
2018-Jun-17 18:44N 54°26' W 130°19'1 6.6
2018-Jun-17 18:31N 54°25' W 130°17'4 8.9
2018-Jun-17 18:00N 54°20' W 130°17'0 0.7
2018-Jun-17 17:28N 54°20' W 130°17'0 0.0
2018-Jun-17 16:58N 54°20' W 130°17'0 0.0
2018-Jun-17 16:28N 54°20' W 130°17'0 0.0
2018-Jun-17 15:58N 54°20' W 130°17'0 0.0
2018-Jun-17 15:28N 54°20' W 130°17'0 0.0
2018-Jun-17 14:58N 54°20' W 130°17'0 0.0
2018-Jun-17 14:25N 54°20' W 130°17'0 0.0
2018-Jun-17 13:58N 54°20' W 130°17'0 0.0
2018-Jun-17 13:28N 54°20' W 130°17'0 0.0
2018-Jun-17 12:58N 54°20' W 130°17'0 0.0
2018-Jun-17 12:25N 54°20' W 130°17'0 0.0
2018-Jun-17 11:58N 54°20' W 130°17'0 0.0
2018-Jun-17 11:28N 54°20' W 130°17'0 0.0
2018-Jun-17 10:55N 54°20' W 130°17'0 0.0
2018-Jun-17 10:28N 54°20' W 130°17'0 0.0
2018-Jun-17 09:58N 54°20' W 130°17'0 0.0
2018-Jun-17 09:25N 54°20' W 130°17'0 0.0
2018-Jun-17 08:55N 54°20' W 130°17'0 0.0
2018-Jun-17 08:25N 54°20' W 130°17'0 0.0
2018-Jun-17 07:55N 54°20' W 130°17'0 0.0
2018-Jun-17 07:28N 54°20' W 130°17'0 0.0
2018-Jun-17 06:58N 54°20' W 130°17'0 0.0
2018-Jun-17 06:28N 54°20' W 130°17'0 0.0
2018-Jun-17 05:58N 54°20' W 130°17'0 0.0
2018-Jun-17 05:25N 54°20' W 130°17'0 0.0
2018-Jun-17 04:58N 54°20' W 130°17'0 0.0
2018-Jun-17 04:28N 54°20' W 130°17'0 0.0
2018-Jun-17 03:55N 54°20' W 130°17'0 0.0
2018-Jun-17 03:28N 54°20' W 130°17'0 0.0
2018-Jun-17 02:58N 54°20' W 130°17'0 0.0
2018-Jun-17 02:28N 54°20' W 130°17'0 0.0
2018-Jun-17 01:52N 54°20' W 130°17'2 4.1
2018-Jun-17 01:30N 54°21' W 130°16'4 8.6
2018-Jun-17 01:00N 54°26' W 130°18'1 1.1
2018-Jun-17 00:30N 54°25' W 130°18'4 8.8
2018-Jun-17 00:00N 54°21' W 130°17'1 1.4
2018-Jun-16 23:28N 54°20' W 130°17'0 0.0
2018-Jun-16 23:00N 54°20' W 130°17'0 0.0
2018-Jun-16 22:30N 54°20' W 130°17'0 0.0
2018-Jun-16 22:01N 54°20' W 130°17'0 0.0
2018-Jun-16 21:25N 54°20' W 130°17'0 0.0
2018-Jun-16 20:58N 54°20' W 130°17'0 0.0
2018-Jun-16 20:24N 54°20' W 130°17'0 0.0
2018-Jun-16 19:58N 54°20' W 130°17'0 0.0
2018-Jun-16 19:28N 54°20' W 130°17'0 0.0
2018-Jun-16 18:57N 54°20' W 130°17'0 0.0
2018-Jun-16 18:28N 54°20' W 130°17'1 2.2
2018-Jun-16 17:48N 54°19' W 130°19'0 0.0
2018-Jun-16 17:30N 54°19' W 130°19'1 2.2
2018-Jun-16 17:00N 54°20' W 130°18'2 4.0
2018-Jun-16 16:30N 54°22' W 130°16'5 6.9
2018-Jun-16 15:51N 54°26' W 130°19'2 6.1
2018-Jun-16 15:29N 54°24' W 130°16'4 8.8
2018-Jun-16 15:00N 54°20' W 130°17'0 0.2
2018-Jun-16 14:30N 54°20' W 130°17'0 0.0
2018-Jun-16 14:00N 54°20' W 130°17'0 0.0
2018-Jun-16 13:30N 54°20' W 130°17'0 0.0
2018-Jun-16 13:00N 54°20' W 130°17'0 0.0
2018-Jun-16 12:30N 54°20' W 130°17'0 0.0
2018-Jun-16 12:00N 54°20' W 130°17'0 0.0
2018-Jun-16 11:30N 54°20' W 130°17'0 0.0
2018-Jun-16 11:00N 54°20' W 130°17'0 0.0
2018-Jun-16 10:30N 54°20' W 130°17'0 0.0
2018-Jun-16 10:00N 54°20' W 130°17'0 0.0
2018-Jun-16 09:30N 54°20' W 130°17'0 0.0
2018-Jun-16 09:00N 54°20' W 130°17'0 0.0
2018-Jun-16 08:30N 54°20' W 130°17'0 0.0
2018-Jun-16 08:00N 54°20' W 130°17'0 0.0
2018-Jun-16 07:30N 54°20' W 130°17'0 0.0
2018-Jun-16 07:00N 54°20' W 130°17'0 0.0
2018-Jun-16 06:30N 54°20' W 130°17'0 0.0
2018-Jun-16 06:01N 54°20' W 130°17'0 0.0
2018-Jun-16 05:30N 54°20' W 130°17'0 0.0
2018-Jun-16 05:00N 54°20' W 130°17'0 0.0
2018-Jun-16 04:30N 54°20' W 130°17'0 0.0
2018-Jun-16 03:59N 54°20' W 130°17'0 0.0
2018-Jun-16 03:30N 54°20' W 130°17'0 0.0
2018-Jun-16 03:01N 54°20' W 130°17'0 0.0
2018-Jun-16 02:30N 54°20' W 130°17'0 0.0
2018-Jun-16 02:00N 54°20' W 130°17'4 7.1
2018-Jun-16 01:30N 54°23' W 130°15'3 6.5
2018-Jun-16 01:00N 54°26' W 130°19'2 4.3
2018-Jun-16 00:30N 54°24' W 130°17'4 8.2
2018-Jun-16 00:00N 54°20' W 130°17'0 0.4
2018-Jun-15 23:28N 54°20' W 130°17'0 0.0
2018-Jun-15 22:58N 54°20' W 130°17'0 0.0
2018-Jun-15 22:28N 54°20' W 130°17'0 0.0
2018-Jun-15 21:58N 54°20' W 130°17'0 0.0
2018-Jun-15 21:28N 54°20' W 130°17'0 0.0
2018-Jun-15 20:58N 54°20' W 130°17'0 0.0
2018-Jun-15 20:28N 54°20' W 130°17'0 0.0
2018-Jun-15 19:58N 54°20' W 130°17'0 0.0
2018-Jun-15 19:28N 54°20' W 130°17'0 0.0
2018-Jun-15 18:58N 54°20' W 130°17'0 0.0
2018-Jun-15 18:28N 54°20' W 130°17'0 0.0
2018-Jun-15 17:49N 54°20' W 130°17'0 0.0
2018-Jun-15 17:25N 54°20' W 130°17'0 0.0
2018-Jun-15 16:58N 54°20' W 130°17'2 3.6
2018-Jun-15 16:30N 54°22' W 130°16'4 8.6
2018-Jun-15 16:00N 54°26' W 130°19'1 2.6
2018-Jun-15 15:27N 54°25' W 130°17'4 8.4
2018-Jun-15 15:00N 54°21' W 130°17'1 1.7
2018-Jun-15 14:30N 54°20' W 130°17'0 0.0
2018-Jun-15 14:00N 54°20' W 130°17'0 0.0
2018-Jun-15 13:30N 54°20' W 130°17'0 0.0
2018-Jun-15 12:59N 54°20' W 130°17'0 0.0
2018-Jun-15 12:30N 54°20' W 130°17'0 0.0
2018-Jun-15 12:00N 54°20' W 130°17'0 0.0
2018-Jun-15 11:30N 54°20' W 130°17'0 0.0
2018-Jun-15 11:00N 54°20' W 130°17'0 0.0
2018-Jun-15 10:30N 54°20' W 130°17'0 0.0
2018-Jun-15 10:00N 54°20' W 130°17'0 0.0
2018-Jun-15 09:30N 54°20' W 130°17'0 0.0
2018-Jun-15 09:00N 54°20' W 130°17'0 0.0
2018-Jun-15 08:30N 54°20' W 130°17'0 0.0
2018-Jun-15 07:59N 54°20' W 130°17'0 0.0
2018-Jun-15 07:30N 54°20' W 130°17'0 0.0
2018-Jun-15 07:00N 54°20' W 130°17'0 0.0
2018-Jun-15 06:30N 54°20' W 130°17'0 0.0
2018-Jun-15 05:59N 54°20' W 130°17'0 0.0
2018-Jun-15 05:30N 54°20' W 130°17'0 0.0
2018-Jun-15 05:00N 54°20' W 130°17'0 0.0
2018-Jun-15 04:30N 54°20' W 130°17'0 0.0
2018-Jun-15 03:59N 54°20' W 130°17'0 0.0
2018-Jun-15 03:30N 54°20' W 130°17'0 0.0
2018-Jun-15 03:00N 54°20' W 130°17'0 0.0
2018-Jun-15 02:30N 54°20' W 130°17'0 0.0
2018-Jun-15 02:00N 54°20' W 130°17'2 4.2
2018-Jun-15 01:30N 54°22' W 130°16'4 8.5
2018-Jun-15 01:00N 54°26' W 130°19'1 2.9
2018-Jun-15 00:30N 54°25' W 130°17'4 8.4
2018-Jun-15 00:00N 54°21' W 130°17'1 1.2
2018-Jun-14 23:30N 54°20' W 130°17'0 0.0
2018-Jun-14 23:00N 54°20' W 130°17'0 0.0
2018-Jun-14 22:30N 54°20' W 130°17'0 0.0
2018-Jun-14 22:00N 54°20' W 130°17'0 0.0
2018-Jun-14 21:30N 54°20' W 130°17'0 0.0
2018-Jun-14 20:59N 54°20' W 130°17'0 0.0
2018-Jun-14 20:30N 54°20' W 130°17'0 0.0
2018-Jun-14 20:00N 54°20' W 130°17'0 0.0
2018-Jun-14 19:30N 54°20' W 130°17'0 0.0
2018-Jun-14 19:00N 54°20' W 130°17'0 0.0
2018-Jun-14 18:30N 54°20' W 130°17'0 0.0
2018-Jun-14 17:59N 54°20' W 130°17'0 0.0
2018-Jun-14 17:30N 54°20' W 130°17'0 0.0
2018-Jun-14 17:00N 54°20' W 130°17'2 3.2
2018-Jun-14 16:30N 54°22' W 130°16'4 8.1
2018-Jun-14 16:00N 54°25' W 130°18'1 1.5
2018-Jun-14 15:30N 54°25' W 130°17'4 8.3
2018-Jun-14 15:00N 54°21' W 130°17'1 1.5
2018-Jun-14 14:30N 54°20' W 130°17'0 0.0
2018-Jun-14 14:00N 54°20' W 130°17'0 0.0
2018-Jun-14 13:30N 54°20' W 130°17'0 0.0
2018-Jun-14 13:00N 54°20' W 130°17'0 0.0
2018-Jun-14 12:30N 54°20' W 130°17'0 0.0
2018-Jun-14 12:00N 54°20' W 130°17'0 0.0
2018-Jun-14 11:30N 54°20' W 130°17'0 0.0
2018-Jun-14 11:00N 54°20' W 130°17'0 0.0
2018-Jun-14 10:30N 54°20' W 130°17'0 0.0
2018-Jun-14 10:00N 54°20' W 130°17'0 0.0
2018-Jun-14 09:30N 54°20' W 130°17'0 0.0
2018-Jun-14 08:59N 54°20' W 130°17'0 0.0
2018-Jun-14 08:30N 54°20' W 130°17'0 0.0
2018-Jun-14 08:00N 54°20' W 130°17'0 0.0
2018-Jun-14 07:30N 54°20' W 130°17'0 0.0
2018-Jun-14 07:00N 54°20' W 130°17'0 0.0
2018-Jun-14 06:30N 54°20' W 130°17'0 0.0
2018-Jun-14 06:00N 54°20' W 130°17'0 0.0
2018-Jun-14 05:29N 54°20' W 130°17'0 0.0
2018-Jun-14 05:00N 54°20' W 130°17'0 0.0
2018-Jun-14 04:30N 54°20' W 130°17'0 0.0
2018-Jun-14 04:00N 54°20' W 130°17'0 0.0
2018-Jun-14 03:30N 54°20' W 130°17'0 0.0
2018-Jun-14 03:00N 54°20' W 130°17'0 0.0
2018-Jun-14 02:30N 54°20' W 130°17'0 0.0
2018-Jun-14 02:00N 54°20' W 130°17'2 3.7
2018-Jun-14 01:30N 54°22' W 130°16'4 8.6
2018-Jun-14 01:00N 54°26' W 130°19'1 2.6
2018-Jun-14 00:30N 54°25' W 130°17'4 8.2
2018-Jun-14 00:00N 54°21' W 130°17'1 1.6
2018-Jun-13 23:30N 54°20' W 130°17'0 0.0
2018-Jun-13 23:00N 54°20' W 130°17'0 0.0
2018-Jun-13 22:30N 54°20' W 130°17'0 0.0
2018-Jun-13 21:59N 54°20' W 130°17'0 0.0
2018-Jun-13 21:30N 54°20' W 130°17'0 0.0
2018-Jun-13 21:00N 54°20' W 130°17'0 0.0
2018-Jun-13 20:30N 54°20' W 130°17'0 0.0
2018-Jun-13 20:00N 54°20' W 130°17'0 0.0
2018-Jun-13 19:30N 54°20' W 130°17'0 0.0
2018-Jun-13 19:00N 54°20' W 130°17'0 0.0
2018-Jun-13 18:30N 54°20' W 130°17'0 0.0
2018-Jun-13 18:00N 54°20' W 130°17'0 0.0
2018-Jun-13 17:30N 54°20' W 130°17'0 0.0
2018-Jun-13 17:00N 54°20' W 130°17'2 4.2
2018-Jun-13 16:30N 54°22' W 130°16'4 8.4
2018-Jun-13 16:00N 54°26' W 130°19'1 2.1
2018-Jun-13 15:30N 54°25' W 130°18'4 8.2
2018-Jun-13 15:00N 54°21' W 130°17'1 1.5
2018-Jun-13 14:23N 54°20' W 130°17'0 0.0
2018-Jun-13 13:56N 54°20' W 130°17'0 0.0
2018-Jun-13 13:29N 54°20' W 130°17'0 0.0
2018-Jun-13 12:59N 54°20' W 130°17'0 0.0
2018-Jun-13 12:29N 54°20' W 130°17'0 0.0
2018-Jun-13 11:56N 54°20' W 130°17'0 0.0
2018-Jun-13 11:29N 54°20' W 130°17'0 0.0
2018-Jun-13 10:59N 54°20' W 130°17'0 0.0
2018-Jun-13 10:14N 54°20' W 130°17'0 0.0
2018-Jun-13 09:56N 54°20' W 130°17'0 0.0
2018-Jun-13 09:29N 54°20' W 130°17'0 0.0
2018-Jun-13 08:56N 54°20' W 130°17'0 0.0
2018-Jun-13 08:29N 54°20' W 130°17'0 0.0
2018-Jun-13 07:56N 54°20' W 130°17'0 0.0
2018-Jun-13 07:26N 54°20' W 130°17'0 0.0
2018-Jun-13 06:59N 54°20' W 130°17'0 0.0
2018-Jun-13 06:26N 54°20' W 130°17'0 0.0
2018-Jun-13 05:56N 54°20' W 130°17'0 0.0
2018-Jun-13 05:14N 54°20' W 130°17'0 0.0
2018-Jun-13 04:59N 54°20' W 130°17'0 0.0
2018-Jun-13 04:26N 54°20' W 130°17'0 0.0
2018-Jun-13 03:59N 54°20' W 130°17'0 0.0
2018-Jun-13 03:29N 54°20' W 130°17'0 0.0
2018-Jun-13 02:59N 54°20' W 130°17'0 0.0
2018-Jun-13 02:29N 54°20' W 130°17'0 0.0
2018-Jun-13 01:59N 54°20' W 130°17'2 4.6
2018-Jun-13 01:31N 54°22' W 130°16'4 8.4
2018-Jun-13 01:00N 54°26' W 130°19'2 3.5
2018-Jun-13 00:30N 54°25' W 130°17'4 8.4
2018-Jun-13 00:01N 54°20' W 130°17'0 0.8
2018-Jun-12 23:29N 54°20' W 130°17'0 0.0
2018-Jun-12 22:59N 54°20' W 130°17'0 0.0
2018-Jun-12 22:26N 54°20' W 130°17'0 0.0
2018-Jun-12 21:59N 54°20' W 130°17'0 0.0
2018-Jun-12 21:26N 54°20' W 130°17'0 0.0
2018-Jun-12 20:59N 54°20' W 130°17'0 0.0
2018-Jun-12 20:29N 54°20' W 130°17'0 0.0
2018-Jun-12 19:59N 54°20' W 130°17'0 0.0
2018-Jun-12 19:29N 54°20' W 130°17'0 0.0
2018-Jun-12 18:59N 54°20' W 130°17'0 0.0
2018-Jun-12 18:29N 54°20' W 130°17'0 0.0
2018-Jun-12 17:59N 54°20' W 130°17'0 0.0
2018-Jun-12 17:29N 54°20' W 130°17'0 0.0
2018-Jun-12 16:53N 54°20' W 130°17'2 4.6
2018-Jun-12 16:31N 54°22' W 130°16'4 8.5
2018-Jun-12 16:00N 54°26' W 130°18'1 2.3
2018-Jun-12 15:30N 54°25' W 130°17'4 8.1
2018-Jun-12 15:00N 54°21' W 130°17'1 1.4
2018-Jun-12 14:30N 54°20' W 130°17'0 0.0
2018-Jun-12 14:00N 54°20' W 130°17'0 0.0
2018-Jun-12 13:30N 54°20' W 130°17'0 0.0
2018-Jun-12 12:57N 54°20' W 130°17'0 0.0
2018-Jun-12 12:27N 54°20' W 130°17'0 0.0
2018-Jun-12 12:00N 54°20' W 130°17'0 0.0
2018-Jun-12 11:30N 54°20' W 130°17'0 0.0
2018-Jun-12 10:54N 54°20' W 130°17'0 0.0
2018-Jun-12 10:27N 54°20' W 130°17'0 0.0
2018-Jun-12 09:57N 54°20' W 130°17'0 0.0
2018-Jun-12 09:30N 54°20' W 130°17'0 0.0
2018-Jun-12 08:55N 54°20' W 130°17'0 0.0
2018-Jun-12 08:28N 54°20' W 130°17'0 0.0
2018-Jun-12 08:00N 54°20' W 130°17'0 0.0
2018-Jun-12 07:30N 54°20' W 130°17'0 0.0
2018-Jun-12 07:00N 54°20' W 130°17'0 0.0
2018-Jun-12 06:27N 54°20' W 130°17'0 0.0
2018-Jun-12 06:00N 54°20' W 130°17'0 0.0
2018-Jun-12 05:31N 54°20' W 130°17'0 0.0
2018-Jun-12 05:00N 54°20' W 130°17'0 0.0
2018-Jun-12 04:31N 54°20' W 130°17'0 0.0
2018-Jun-12 03:57N 54°20' W 130°17'0 0.0
2018-Jun-12 03:30N 54°20' W 130°17'0 0.0
2018-Jun-12 03:01N 54°20' W 130°17'0 0.0
2018-Jun-12 02:30N 54°20' W 130°17'0 0.0
2018-Jun-12 01:57N 54°20' W 130°17'1 1.2
2018-Jun-12 01:30N 54°21' W 130°17'4 8.8
2018-Jun-12 01:00N 54°25' W 130°17'0 0.8
2018-Jun-12 00:30N 54°25' W 130°18'4 8.8
2018-Jun-12 00:00N 54°21' W 130°17'1 1.4
2018-Jun-11 23:30N 54°20' W 130°17'0 0.0
2018-Jun-11 23:00N 54°20' W 130°17'0 0.0
2018-Jun-11 22:27N 54°20' W 130°17'0 0.0
2018-Jun-11 21:54N 54°20' W 130°17'0 0.0
2018-Jun-11 21:30N 54°20' W 130°17'0 0.0
2018-Jun-11 21:00N 54°20' W 130°17'0 0.0
2018-Jun-11 20:30N 54°20' W 130°17'0 0.0
2018-Jun-11 20:00N 54°20' W 130°17'0 0.0
2018-Jun-11 19:30N 54°20' W 130°17'0 0.0
2018-Jun-11 19:00N 54°20' W 130°17'0 0.0
2018-Jun-11 18:30N 54°20' W 130°17'0 0.0
2018-Jun-11 18:00N 54°20' W 130°17'0 0.0
2018-Jun-11 17:30N 54°20' W 130°17'0 0.0
2018-Jun-11 17:00N 54°20' W 130°17'1 1.7
2018-Jun-11 16:31N 54°21' W 130°17'4 8.0
2018-Jun-11 16:00N 54°25' W 130°17'0 0.2
2018-Jun-11 15:30N 54°25' W 130°17'4 8.6
2018-Jun-11 15:00N 54°21' W 130°17'1 1.2
2018-Jun-11 14:28N 54°20' W 130°17'0 0.0
2018-Jun-11 13:58N 54°20' W 130°17'0 0.0
2018-Jun-11 13:25N 54°20' W 130°17'0 0.0
2018-Jun-11 12:55N 54°20' W 130°17'0 0.0
2018-Jun-11 12:28N 54°20' W 130°17'0 0.0
2018-Jun-11 11:58N 54°20' W 130°17'0 0.0
2018-Jun-11 11:28N 54°20' W 130°17'0 0.0
2018-Jun-11 10:58N 54°20' W 130°17'0 0.0
2018-Jun-11 10:28N 54°20' W 130°17'0 0.0
2018-Jun-11 09:55N 54°20' W 130°17'0 0.0
2018-Jun-11 09:28N 54°20' W 130°17'0 0.0
2018-Jun-11 08:58N 54°20' W 130°17'0 0.0
2018-Jun-11 08:28N 54°20' W 130°17'0 0.0
2018-Jun-11 07:58N 54°20' W 130°17'0 0.0
2018-Jun-11 07:28N 54°20' W 130°17'0 0.0
2018-Jun-11 06:58N 54°20' W 130°17'0 0.0
2018-Jun-11 06:28N 54°20' W 130°17'0 0.0
2018-Jun-11 05:58N 54°20' W 130°17'0 0.0
2018-Jun-11 05:28N 54°20' W 130°17'0 0.0
2018-Jun-11 04:55N 54°20' W 130°17'0 0.0
2018-Jun-11 04:28N 54°20' W 130°17'0 0.0
2018-Jun-11 03:58N 54°20' W 130°17'0 0.0
2018-Jun-11 03:28N 54°20' W 130°17'0 0.0
2018-Jun-11 02:58N 54°20' W 130°17'0 0.0
2018-Jun-11 02:28N 54°20' W 130°17'0 0.0
2018-Jun-11 01:58N 54°20' W 130°17'0 0.0
2018-Jun-11 01:28N 54°20' W 130°17'0 0.0
2018-Jun-11 00:58N 54°20' W 130°17'3 5.7
2018-Jun-11 00:30N 54°23' W 130°16'4 5.3
2018-Jun-10 23:46N 54°26' W 130°19'2 6.9
2018-Jun-10 23:30N 54°25' W 130°17'5 8.5
2018-Jun-10 22:58N 54°20' W 130°17'0 0.0
2018-Jun-10 22:28N 54°20' W 130°17'0 0.0
2018-Jun-10 21:58N 54°20' W 130°17'0 0.0
2018-Jun-10 21:28N 54°20' W 130°17'0 0.0
2018-Jun-10 20:58N 54°20' W 130°17'0 0.0
2018-Jun-10 20:28N 54°20' W 130°17'0 0.0
2018-Jun-10 19:58N 54°20' W 130°17'1 2.4
2018-Jun-10 19:30N 54°21' W 130°17'4 8.8
2018-Jun-10 19:00N 54°25' W 130°18'1 1.3
2018-Jun-10 18:30N 54°25' W 130°17'4 8.7
2018-Jun-10 18:00N 54°21' W 130°17'1 1.0
2018-Jun-10 17:30N 54°20' W 130°17'0 0.0
2018-Jun-10 17:00N 54°20' W 130°17'0 0.0
2018-Jun-10 16:27N 54°20' W 130°17'0 0.0
2018-Jun-10 16:00N 54°20' W 130°17'0 0.0
2018-Jun-10 15:27N 54°20' W 130°17'0 0.0
2018-Jun-10 14:57N 54°20' W 130°17'0 0.0
2018-Jun-10 14:00N 54°20' W 130°17'0 0.0
2018-Jun-10 13:30N 54°20' W 130°17'0 0.0
2018-Jun-10 13:00N 54°20' W 130°17'0 0.0
2018-Jun-10 12:30N 54°20' W 130°17'0 0.0
2018-Jun-10 12:00N 54°20' W 130°17'0 0.0
2018-Jun-10 11:30N 54°20' W 130°17'  

Dump ship's entire track history